Time;durP1;ratioP1;P1;durP2;ratioP2;P2;SDS_P1;SDS_P2;PMS_P1;PMS_P2;Temp;Humidity;BMP_temperature;BMP_pressure;BME280_temperature;BME280_humidity;BME280_pressure;Samples;Min_cycle;Max_cycle;Signal;HPM_P1;HPM_P2
2022/12/25 00:01:54;;;;;;;6.33;5.47;;;;;;;5.27;100.00;97303.38;5023569;28;20287;-69
2022/12/25 00:04:22;;;;;;;9.63;6.70;;;;;;;5.28;100.00;97310.28;5033933;28;20597;-71
2022/12/25 00:06:50;;;;;;;7.20;6.50;;;;;;;5.26;100.00;97309.59;5026300;28;20223;-69
2022/12/25 00:09:18;;;;;;;7.47;6.87;;;;;;;5.21;100.00;97308.25;5016037;28;20225;-70
2022/12/25 00:11:45;;;;;;;7.07;6.37;;;;;;;5.21;100.00;97302.16;5014572;28;20333;-69
2022/12/25 00:14:13;;;;;;;6.67;6.17;;;;;;;5.16;100.00;97296.53;4992449;28;21828;-71
2022/12/25 00:16:41;;;;;;;7.17;6.40;;;;;;;5.12;100.00;97295.16;5023932;28;20398;-69
2022/12/25 00:19:08;;;;;;;6.60;6.00;;;;;;;5.18;100.00;97305.91;4982784;28;20224;-70
2022/12/25 00:21:36;;;;;;;6.43;5.83;;;;;;;5.18;100.00;97290.16;5018719;28;20568;-71
2022/12/25 00:24:05;;;;;;;7.13;6.43;;;;;;;5.17;100.00;97292.91;5031162;28;20206;-70
2022/12/25 00:26:33;;;;;;;9.63;6.40;;;;;;;5.18;100.00;97292.78;5020636;28;20539;-71
2022/12/25 00:29:01;;;;;;;7.27;6.07;;;;;;;5.19;100.00;97296.22;5027592;28;20195;-71
2022/12/25 00:31:28;;;;;;;6.60;5.60;;;;;;;5.16;100.00;97291.28;5006902;28;20230;-69
2022/12/25 00:33:56;;;;;;;8.30;6.67;;;;;;;5.21;100.00;97296.91;4991774;28;20235;-71
2022/12/25 00:36:24;;;;;;;6.50;6.00;;;;;;;5.22;100.00;97288.06;5022351;28;20357;-70
2022/12/25 00:38:51;;;;;;;6.27;5.70;;;;;;;5.21;100.00;97289.88;5025994;28;20729;-71
2022/12/25 00:42:17;;;;;;;8.30;5.70;;;;;;;5.21;100.00;97281.97;5030352;28;20219;-68
2022/12/25 00:44:12;;;;;;;7.37;5.53;;;;;;;5.19;100.00;97280.47;5025031;28;20211;-71
2022/12/25 00:46:40;;;;;;;5.87;5.40;;;;;;;5.22;100.00;97288.06;5007719;28;20538;-70
2022/12/25 00:49:08;;;;;;;5.30;4.90;;;;;;;5.21;100.00;97286.41;4991407;28;20576;-71
2022/12/25 00:51:35;;;;;;;5.67;4.70;;;;;;;5.24;100.00;97291.34;5016384;28;20298;-69
2022/12/25 00:54:03;;;;;;;8.00;5.10;;;;;;;5.21;100.00;97287.25;5032073;28;20669;-71
2022/12/25 00:56:32;;;;;;;6.57;4.97;;;;;;;5.22;100.00;97288.06;5024634;28;20436;-69
2022/12/25 00:59:00;;;;;;;5.37;4.80;;;;;;;5.21;100.00;97289.88;5032511;28;20337;-71
2022/12/25 01:01:28;;;;;;;7.47;5.07;;;;;;;5.20;100.00;97287.38;5011812;28;20322;-68
2022/12/25 01:03:56;;;;;;;5.67;5.20;;;;;;;5.16;100.00;97286.84;5030233;28;20414;-72
2022/12/25 01:06:23;;;;;;;5.33;4.93;;;;;;;5.17;100.00;97287.66;4985265;28;20392;-69
2022/12/25 01:11:37;;;;;;;5.90;5.30;;;;;;;5.09;100.00;97298.91;5026419;28;20716;-72
2022/12/25 01:14:05;;;;;;;5.43;5.00;;;;;;;5.07;100.00;97299.06;5028318;28;20206;-71
2022/12/25 01:16:33;;;;;;;9.63;5.07;;;;;;;5.05;100.00;97308.03;5005905;28;20222;-71
2022/12/25 01:19:00;;;;;;;6.87;5.97;;;;;;;5.03;100.00;97308.22;5029675;28;20220;-71
2022/12/25 01:21:28;;;;;;;6.93;6.23;;;;;;;5.04;100.00;97314.28;4984795;28;20231;-70
2022/12/25 01:23:56;;;;;;;6.90;5.23;;;;;;;5.05;100.00;97315.94;5026558;28;20208;-71
2022/12/25 01:26:25;;;;;;;5.97;5.47;;;;;;;5.05;100.00;97318.56;5028027;28;20532;-70
2022/12/25 01:28:54;;;;;;;7.00;5.70;;;;;;;5.05;100.00;97314.13;5028561;28;20516;-70
2022/12/25 01:31:23;;;;;;;6.00;5.40;;;;;;;5.05;100.00;97308.03;5026306;28;20218;-70
2022/12/25 01:33:51;;;;;;;7.30;5.40;;;;;;;5.03;100.00;97308.22;5013049;28;20204;-71
2022/12/25 01:36:23;;;;;;;6.63;6.03;;;;;;;5.00;100.00;97310.28;5004669;28;20307;-70
2022/12/25 01:38:52;;;;;;;7.83;4.73;;;;;;;4.98;100.00;97312.22;5020796;28;20223;-71
2022/12/25 01:41:21;;;;;;;8.67;5.67;;;;;;;4.96;100.00;97316.81;5026041;28;20200;-69
2022/12/25 01:44:05;;;;;;;6.00;5.50;;;;;;;4.97;100.00;97324.56;5028736;28;20432;-71
2022/12/25 01:46:33;;;;;;;6.13;5.60;;;;;;;4.95;100.00;97328.28;5023412;28;20504;-70
2022/12/25 01:49:03;;;;;;;7.50;5.53;;;;;;;4.93;100.00;97323.19;5016263;28;20666;-72
2022/12/25 01:51:34;;;;;;;7.00;5.73;;;;;;;4.92;100.00;97330.22;5023791;28;20208;-71
2022/12/25 01:54:04;;;;;;;7.03;6.43;;;;;;;4.89;100.00;97320.00;5003612;28;20788;-70
2022/12/25 01:56:33;;;;;;;5.67;5.20;;;;;;;4.91;100.00;97320.69;5023842;28;20220;-68
2022/12/25 01:59:03;;;;;;;5.50;5.00;;;;;;;4.92;100.00;97322.34;5030651;28;21002;-69
2022/12/25 02:01:30;;;;;;;7.50;5.70;;;;;;;4.92;100.00;97326.75;5023723;28;20397;-71
2022/12/25 02:04:04;;;;;;;8.70;5.83;;;;;;;4.95;100.00;97323.03;5014707;28;20682;-72
2022/12/25 02:06:33;;;;;;;6.17;5.57;;;;;;;4.97;100.00;97324.56;5030058;28;21052;-69
2022/12/25 02:09:01;;;;;;;6.00;5.40;;;;;;;4.98;100.00;97331.47;4993675;28;20199;-71
2022/12/25 02:14:15;;;;;;;6.27;5.80;;;;;;;5.01;100.00;97330.31;5030944;28;20278;-69
2022/12/25 02:16:43;;;;;;;6.37;5.53;;;;;;;5.03;100.00;97320.50;5029403;28;20440;-72
2022/12/25 02:19:37;;;;;;;7.23;5.80;;;;;;;4.99;100.00;97325.22;5011024;28;20488;-71
2022/12/25 02:22:12;;;;;;;5.00;4.57;;;;;;;5.00;100.00;97312.91;5032639;28;20203;-70
2022/12/25 02:24:59;;;;;;;5.17;4.67;;;;;;;4.92;100.00;97314.47;4990987;28;20428;-70
2022/12/25 02:27:59;;;;;;;5.37;4.87;;;;;;;4.86;100.00;97312.44;4982783;28;20235;-70
2022/12/25 02:30:27;;;;;;;6.33;5.30;;;;;;;4.75;100.00;97310.00;5029153;28;20223;-71
2022/12/25 02:34:01;;;;;;;5.97;5.33;;;;;;;4.67;100.00;97307.22;5024169;28;20603;-70
2022/12/25 02:35:46;;;;;;;6.57;4.77;;;;;;;4.59;100.00;97306.16;5023019;28;20207;-70
2022/12/25 02:38:16;;;;;;;5.27;4.87;;;;;;;4.56;100.00;97311.69;5026461;28;20203;-71
2022/12/25 02:40:44;;;;;;;7.37;5.40;;;;;;;4.54;100.00;97321.50;5026131;28;20769;-69
2022/12/25 03:08:37;;;;;;;7.57;5.30;;;;;;;4.44;100.00;97305.78;5027947;28;20219;-71
2022/12/25 03:16:52;;;;;;;5.40;4.90;;;;;;;4.55;100.00;97306.59;5013772;28;20219;-71
2022/12/25 03:27:52;;;;;;;4.63;4.23;;;;;;;4.43;100.00;97298.06;5032212;28;20227;-71
2022/12/25 03:33:14;;;;;;;5.47;4.97;;;;;;;4.31;100.00;97282.47;5029331;28;20207;-69
2022/12/25 03:36:08;;;;;;;5.37;4.90;;;;;;;4.21;100.00;97279.06;5031203;28;20693;-71
2022/12/25 04:37:18;;;;;;;5.30;4.87;;;;;;;3.38;100.00;97282.97;5023432;28;20531;-70
2022/12/25 04:39:47;;;;;;;6.00;5.43;;;;;;;3.36;100.00;97287.50;5031374;28;20234;-71
2022/12/25 04:42:15;;;;;;;5.80;5.30;;;;;;;3.37;100.00;97289.16;5021968;28;20506;-69
2022/12/25 04:44:42;;;;;;;6.53;5.23;;;;;;;3.37;100.00;97285.69;5022400;28;20218;-68
2022/12/25 04:47:10;;;;;;;5.80;5.27;;;;;;;3.32;100.00;97292.19;4989466;28;20480;-73
2022/12/25 04:49:38;;;;;;;5.87;5.23;;;;;;;3.28;100.00;97293.41;5017479;28;20223;-72
2022/12/25 04:52:06;;;;;;;5.13;4.63;;;;;;;3.27;100.00;97293.56;4998357;28;20389;-67
2022/12/25 04:54:34;;;;;;;6.97;5.10;;;;;;;3.27;100.00;97278.66;5030730;28;20211;-71
2022/12/25 04:57:03;;;;;;;5.77;4.83;;;;;;;3.31;100.00;97280.03;5003889;28;20257;-71
2022/12/25 04:59:30;;;;;;;5.03;4.53;;;;;;;3.31;100.00;97276.63;5028868;28;20195;-70
2022/12/25 05:01:58;;;;;;;6.90;4.60;;;;;;;3.36;100.00;97277.03;5009938;28;20788;-70
2022/12/25 05:04:25;;;;;;;4.90;4.47;;;;;;;3.31;100.00;97271.38;5027084;28;20208;-70
2022/12/25 05:06:53;;;;;;;5.30;4.40;;;;;;;3.37;100.00;97276.06;4976118;28;20227;-70
2022/12/25 05:09:21;;;;;;;7.03;5.33;;;;;;;3.35;100.00;97285.84;5029611;28;20212;-71
2022/12/25 05:11:49;;;;;;;5.00;4.50;;;;;;;3.29;100.00;97287.22;5023803;28;20208;-68
2022/12/25 05:14:17;;;;;;;4.97;4.57;;;;;;;3.30;100.00;97293.28;5028516;28;20287;-72
2022/12/25 05:16:45;;;;;;;5.47;4.97;;;;;;;3.30;100.00;97282.81;5020858;28;20254;-70
2022/12/25 05:19:13;;;;;;;5.00;4.70;;;;;;;3.29;100.00;97287.22;5011558;28;20570;-71
2022/12/25 05:21:41;;;;;;;5.17;4.57;;;;;;;3.29;100.00;97286.41;5007724;28;20238;-71
2022/12/25 05:24:08;;;;;;;4.53;4.13;;;;;;;3.24;100.00;97288.59;5004240;28;20489;-71
2022/12/25 05:26:36;;;;;;;4.57;4.17;;;;;;;3.18;100.00;97282.09;5030293;28;20485;-71
2022/12/25 05:29:04;;;;;;;4.67;4.27;;;;;;;3.24;100.00;97289.41;5010629;28;20219;-71
2022/12/25 05:31:33;;;;;;;4.33;3.93;;;;;;;3.25;100.00;97285.00;5022198;28;20211;-72
2022/12/25 05:34:00;;;;;;;4.97;4.50;;;;;;;3.27;100.00;97289.13;5010233;28;20433;-71
2022/12/25 05:36:28;;;;;;;4.60;4.20;;;;;;;3.26;100.00;97289.28;5025068;28;20239;-71
2022/12/25 05:38:56;;;;;;;5.27;4.77;;;;;;;3.28;100.00;97300.44;4979725;28;20770;-71
2022/12/25 05:41:23;;;;;;;5.37;4.87;;;;;;;3.26;100.00;97294.53;5026621;28;20232;-71
2022/12/25 05:43:58;;;;;;;8.20;4.87;;;;;;;3.20;100.00;97290.66;5024449;28;20482;-70
2022/12/25 05:46:26;;;;;;;5.30;4.83;;;;;;;3.22;100.00;97293.13;5027212;28;20246;-72
2022/12/25 05:48:55;;;;;;;4.83;4.43;;;;;;;3.22;100.00;97293.97;5010640;28;20199;-70
2022/12/25 05:51:22;;;;;;;7.50;4.67;;;;;;;3.27;100.00;97285.72;5027372;28;20204;-69
2022/12/25 05:53:50;;;;;;;5.60;5.10;;;;;;;3.40;100.00;97282.81;4984515;28;20226;-71
2022/12/25 05:56:17;;;;;;;6.07;5.40;;;;;;;3.35;100.00;97285.84;5025188;28;20231;-71
2022/12/25 05:58:45;;;;;;;5.63;4.53;;;;;;;3.36;100.00;97279.66;5026974;28;20294;-72
2022/12/25 06:01:14;;;;;;;5.40;4.90;;;;;;;3.39;100.00;97282.00;5025978;28;20979;-72
2022/12/25 06:03:42;;;;;;;5.80;5.30;;;;;;;3.45;100.00;97270.97;5026816;28;20686;-72
2022/12/25 06:06:11;;;;;;;5.80;5.40;;;;;;;3.47;100.00;97269.03;5005405;28;21346;-72
2022/12/25 06:08:39;;;;;;;6.00;5.70;;;;;;;3.55;100.00;97265.75;4990339;28;20769;-71
2022/12/25 06:11:08;;;;;;;7.00;6.37;;;;;;;3.65;100.00;97275.38;5013014;28;22689;-71
2022/12/25 06:13:36;;;;;;;7.50;6.87;;;;;;;3.71;100.00;97288.78;5031518;28;20214;-72
2022/12/25 06:16:04;;;;;;;6.73;6.10;;;;;;;3.62;100.00;97285.19;5021360;28;20302;-71
2022/12/25 06:18:34;;;;;;;6.50;6.00;;;;;;;3.72;100.00;97284.34;5031142;28;20208;-71
2022/12/25 06:21:06;;;;;;;9.70;6.33;;;;;;;3.81;100.00;97275.69;4991726;28;20623;-70
2022/12/25 06:23:35;;;;;;;6.27;5.70;;;;;;;3.73;100.00;97280.75;5015843;28;20214;-70
2022/12/25 06:26:04;;;;;;;6.27;5.67;;;;;;;3.58;100.00;97278.56;4999726;28;22202;-72
2022/12/25 06:28:31;;;;;;;7.30;6.57;;;;;;;3.45;100.00;97281.44;4994256;28;20211;-69
2022/12/25 06:30:59;;;;;;;6.40;5.90;;;;;;;3.52;100.00;97283.50;5005640;28;20207;-69
2022/12/25 06:33:26;;;;;;;5.77;5.27;;;;;;;3.58;100.00;97283.81;5009894;28;20219;-69
2022/12/25 06:35:54;;;;;;;5.37;4.80;;;;;;;3.54;100.00;97289.44;5008585;28;20700;-71
2022/12/25 06:38:21;;;;;;;5.40;5.00;;;;;;;3.62;100.00;97297.47;5009598;28;20237;-69
2022/12/25 06:40:50;;;;;;;5.03;4.73;;;;;;;3.71;100.00;97298.41;4989491;28;20242;-68
2022/12/25 06:43:18;;;;;;;5.82;5.32;;;;;;;3.78;100.00;97290.84;4971074;28;21213;-71
2022/12/25 06:45:46;;;;;;;6.05;5.43;;;;;;;3.80;100.00;97305.47;5028335;28;20934;-71
2022/12/25 06:48:14;;;;;;;6.00;5.50;;;;;;;3.88;100.00;97302.13;5006701;28;20206;-68
2022/12/25 06:50:42;;;;;;;5.27;4.87;;;;;;;3.92;100.00;97298.28;5021140;28;20200;-72
2022/12/25 06:53:10;;;;;;;6.00;5.50;;;;;;;4.07;100.00;97305.72;5020038;28;20215;-70
2022/12/25 06:55:37;;;;;;;7.10;6.50;;;;;;;4.09;100.00;97306.41;5026002;28;20234;-71
2022/12/25 06:58:06;;;;;;;8.57;7.72;;;;;;;4.01;100.00;97313.19;4979839;28;20434;-69
2022/12/25 07:00:33;;;;;;;7.10;6.43;;;;;;;4.08;100.00;97312.63;5029775;28;20489;-71
2022/12/25 07:03:01;;;;;;;7.77;7.00;;;;;;;4.11;100.00;97307.09;5026304;28;20258;-69
2022/12/25 07:05:29;;;;;;;7.60;7.00;;;;;;;4.10;100.00;97303.63;5015109;28;20226;-69
2022/12/25 07:07:56;;;;;;;7.97;7.27;;;;;;;4.10;100.00;97305.44;5024461;28;20245;-70
2022/12/25 07:10:24;;;;;;;8.37;7.17;;;;;;;4.02;100.00;97306.13;5024106;28;20200;-71
2022/12/25 07:12:52;;;;;;;13.43;12.30;;;;;;;4.13;100.00;97307.78;4990854;28;20208;-71
2022/12/25 07:15:21;;;;;;;14.77;13.50;;;;;;;4.19;100.00;97312.47;5025633;28;20541;-71
2022/12/25 07:17:48;;;;;;;9.27;8.57;;;;;;;4.23;100.00;97308.59;5030029;28;20227;-70
2022/12/25 07:20:16;;;;;;;9.93;9.13;;;;;;;4.24;100.00;97299.75;5009521;28;20211;-69
2022/12/25 07:22:43;;;;;;;8.37;7.67;;;;;;;4.13;100.00;97305.16;5021307;28;20223;-71
2022/12/25 07:25:11;;;;;;;8.97;8.17;;;;;;;4.14;100.00;97305.00;5014584;28;20211;-69
2022/12/25 07:27:40;;;;;;;7.77;7.07;;;;;;;4.11;100.00;97309.72;4988499;28;20239;-71
2022/12/25 07:30:08;;;;;;;8.13;7.47;;;;;;;4.24;100.00;97304.19;5024775;28;20204;-70
2022/12/25 07:32:37;;;;;;;7.33;6.83;;;;;;;4.27;100.00;97309.16;5029029;28;20412;-71
2022/12/25 07:35:05;;;;;;;8.30;7.50;;;;;;;4.31;100.00;97310.53;5009700;28;20837;-70
2022/12/25 07:37:33;;;;;;;7.37;6.77;;;;;;;4.32;100.00;97320.84;5023783;28;20491;-70
2022/12/25 07:40:00;;;;;;;7.57;6.87;;;;;;;4.35;100.00;97315.31;5029190;28;20200;-71
2022/12/25 07:42:28;;;;;;;9.07;7.20;;;;;;;4.45;100.00;97306.63;4964163;28;20656;-71
2022/12/25 07:44:56;;;;;;;6.63;6.13;;;;;;;4.54;100.00;97311.00;5024919;28;20652;-70
2022/12/25 07:47:23;;;;;;;7.77;7.10;;;;;;;4.33;100.00;97309.41;5022404;28;20426;-71
2022/12/25 07:49:52;;;;;;;7.67;7.07;;;;;;;4.35;100.00;97325.00;5024215;28;20207;-70
2022/12/25 07:52:20;;;;;;;8.83;8.03;;;;;;;4.41;100.00;97321.81;5001609;28;20636;-71
2022/12/25 07:54:47;;;;;;;9.37;8.67;;;;;;;4.46;100.00;97316.97;5022904;28;20208;-68
2022/12/25 07:57:15;;;;;;;12.73;11.40;;;;;;;4.48;100.00;97316.84;5010325;28;20285;-68
2022/12/25 07:59:42;;;;;;;10.73;9.77;;;;;;;4.41;100.00;97303.44;4988303;28;20602;-70
2022/12/25 08:02:10;;;;;;;9.27;8.37;;;;;;;4.42;100.00;97299.03;5012712;28;20231;-69
2022/12/25 08:04:38;;;;;;;8.40;7.63;;;;;;;4.42;100.00;97306.91;5006896;28;20212;-69
2022/12/25 08:07:07;;;;;;;8.37;7.67;;;;;;;4.56;100.00;97309.06;5004824;28;20341;-72
2022/12/25 08:09:35;;;;;;;8.97;8.10;;;;;;;4.69;100.00;97311.38;5013605;28;20594;-71
2022/12/25 08:12:03;;;;;;;9.53;8.57;;;;;;;4.84;100.00;97319.63;5028564;28;20207;-71
2022/12/25 08:14:30;;;;;;;8.27;7.50;;;;;;;4.90;100.00;97318.19;4977438;28;20355;-71
2022/12/25 08:16:58;;;;;;;8.87;8.17;;;;;;;5.05;100.00;97319.38;5027890;28;20233;-73
2022/12/25 08:19:25;;;;;;;8.17;7.47;;;;;;;5.12;100.00;97310.94;5029721;28;20800;-70
2022/12/25 08:21:53;;;;;;;7.50;6.93;;;;;;;5.06;100.00;97309.69;5018624;28;20710;-69
2022/12/25 08:24:22;;;;;;;7.87;7.20;;;;;;;5.17;100.00;97313.94;5023535;28;20322;-70
2022/12/25 08:26:50;;;;;;;10.03;9.10;;;;;;;5.18;100.00;97303.28;5024899;28;20531;-68
2022/12/25 08:29:18;;;;;;;15.67;13.97;;;;;;;5.24;100.00;97293.16;4992373;28;20224;-71
2022/12/25 08:31:45;;;;;;;22.45;20.65;;;;;;;5.28;100.00;97289.28;4981513;28;20444;-69
2022/12/25 08:34:13;;;;;;;24.85;22.55;;;;;;;5.32;100.00;97296.72;5014188;28;20458;-71
2022/12/25 08:36:41;;;;;;;19.93;18.13;;;;;;;5.33;100.00;97298.38;5024833;28;21010;-69
2022/12/25 08:39:09;;;;;;;16.57;15.17;;;;;;;5.24;100.00;97296.59;5012960;28;20215;-70
2022/12/25 08:41:38;;;;;;;14.13;12.93;;;;;;;5.14;100.00;97290.59;5029186;28;20203;-67
2022/12/25 08:44:06;;;;;;;15.37;12.90;;;;;;;5.05;100.00;97287.88;5031712;28;20203;-71
2022/12/25 08:46:35;;;;;;;11.53;10.53;;;;;;;5.20;100.00;97279.50;4992122;28;20690;-68
2022/12/25 08:49:03;;;;;;;11.30;10.40;;;;;;;5.49;100.00;97284.56;4989846;28;20204;-71
2022/12/25 08:51:30;;;;;;;10.53;9.70;;;;;;;5.66;100.00;97284.72;5034644;28;20242;-70
2022/12/25 08:53:59;;;;;;;10.73;9.73;;;;;;;5.72;100.00;97273.59;5031501;28;20449;-71
2022/12/25 08:56:27;;;;;;;7.63;7.03;;;;;;;5.59;100.00;97273.97;4984972;28;20493;-68
2022/12/25 08:58:56;;;;;;;6.00;5.50;;;;;;;5.56;100.00;97278.72;5022005;28;20528;-71
2022/12/25 09:01:24;;;;;;;5.70;5.20;;;;;;;5.59;100.00;97270.53;5006182;28;20695;-69
2022/12/25 09:03:51;;;;;;;5.63;5.13;;;;;;;5.87;100.00;97273.06;4983815;28;21023;-68
2022/12/25 09:06:19;;;;;;;5.27;4.87;;;;;;;5.76;100.00;97256.53;5027745;28;20233;-69
2022/12/25 09:08:47;;;;;;;4.93;4.63;;;;;;;5.85;100.00;97264.50;5022797;28;20208;-70
2022/12/25 09:11:18;;;;;;;4.47;4.17;;;;;;;5.91;100.00;97250.75;5031796;28;20211;-68
2022/12/25 09:13:46;;;;;;;6.17;5.67;;;;;;;6.01;100.00;97251.50;5029081;28;20200;-70
2022/12/25 09:16:18;;;;;;;4.57;4.20;;;;;;;6.19;100.00;97248.84;5014080;28;20249;-70
2022/12/25 09:18:46;;;;;;;4.80;4.40;;;;;;;6.26;100.00;97253.47;5026010;28;20427;-70
2022/12/25 09:21:15;;;;;;;4.90;4.50;;;;;;;6.53;100.00;97254.31;4984475;28;20668;-68
2022/12/25 09:23:43;;;;;;;4.50;4.00;;;;;;;6.51;100.00;97249.19;5025241;28;20744;-71
2022/12/25 09:26:12;;;;;;;4.13;3.70;;;;;;;6.68;100.00;97257.19;5029838;28;21342;-70
2022/12/25 09:28:40;;;;;;;4.30;4.00;;;;;;;6.86;100.00;97263.19;5026632;28;20695;-70
2022/12/25 09:31:16;;;;;;;5.23;4.50;;;;;;;7.00;100.00;97247.75;5026526;28;20206;-68
2022/12/25 09:33:44;;;;;;;4.53;3.07;;;;;;;7.02;100.00;97249.25;5015441;28;20374;-70
2022/12/25 09:36:11;;;;;;;3.60;3.30;;;;;;;7.12;100.00;97241.22;4985392;28;20246;-68
2022/12/25 09:38:39;;;;;;;3.43;3.10;;;;;;;7.28;100.00;97239.59;5007476;28;20274;-70
2022/12/25 09:41:13;;;;;;;3.50;3.07;;;;;;;7.38;100.00;97214.75;5028472;28;20238;-70
2022/12/25 09:43:42;;;;;;;3.90;3.30;;;;;;;7.57;100.00;97207.50;5009312;28;20570;-71
2022/12/25 09:46:14;;;;;;;3.50;3.20;;;;;;;7.55;100.00;97204.19;5026999;28;20228;-70
2022/12/25 09:48:46;;;;;;;3.10;2.90;;;;;;;7.52;100.00;97193.97;5005994;28;20415;-70
2022/12/25 09:51:16;;;;;;;2.70;2.50;;;;;;;7.42;100.00;97215.25;4978201;28;20565;-70
2022/12/25 09:53:49;;;;;;;3.43;3.10;;;;;;;7.50;100.00;97207.34;5017063;28;20214;-70
2022/12/25 09:56:19;;;;;;;3.50;2.80;;;;;;;7.65;100.00;97220.69;5020010;28;20234;-70
2022/12/25 09:58:46;;;;;;;6.80;5.67;;;;;;;7.82;100.00;97221.53;5002941;28;20211;-71
2022/12/25 10:01:19;;;;;;;6.73;3.73;;;;;;;7.91;100.00;97222.31;5023562;28;20208;-69
2022/12/25 10:04:03;;;;;;;3.43;2.93;;;;;;;7.94;100.00;97216.72;5007924;28;20556;-69
2022/12/25 10:06:34;;;;;;;2.80;2.60;;;;;;;7.99;100.00;97216.22;4946915;28;20319;-66
2022/12/25 10:09:27;;;;;;;3.23;2.90;;;;;;;7.96;100.00;97214.75;5028157;28;20215;-72
2022/12/25 10:12:07;;;;;;;2.53;2.30;;;;;;;7.93;100.00;97211.63;5006528;28;20233;-67
2022/12/25 10:14:41;;;;;;;3.17;2.57;;;;;;;7.88;100.00;97200.75;5020439;28;20206;-69
2022/12/25 10:17:26;;;;;;;2.67;2.47;;;;;;;7.92;100.00;97199.41;5025256;28;20219;-71
2022/12/25 10:20:04;;;;;;;3.47;2.80;;;;;;;7.71;100.00;97198.09;5005272;28;20208;-69
2022/12/25 10:22:35;;;;;;;3.93;2.80;;;;;;;7.65;100.00;97201.41;4965373;28;20676;-66
2022/12/25 10:25:05;;;;;;;2.80;2.60;;;;;;;7.58;100.00;97195.16;5025085;28;20578;-71
2022/12/25 10:27:35;;;;;;;3.17;2.87;;;;;;;7.73;100.00;97198.75;5014393;28;20556;-71
2022/12/25 10:30:09;;;;;;;3.80;3.43;;;;;;;7.75;100.00;97193.34;5024951;28;20195;-71
2022/12/25 10:32:37;;;;;;;5.10;3.33;;;;;;;7.84;100.00;97186.25;5023785;28;20618;-71
2022/12/25 10:35:10;;;;;;;4.03;3.53;;;;;;;7.69;100.00;97176.34;5011734;28;20207;-71
2022/12/25 10:37:38;;;;;;;4.20;3.80;;;;;;;7.65;100.00;97170.59;5000891;28;20346;-71
2022/12/25 10:40:25;;;;;;;5.07;4.07;;;;;;;7.64;100.00;97176.03;4986784;28;20218;-69
2022/12/25 10:42:55;;;;;;;3.13;2.93;;;;;;;7.68;100.00;97164.16;5011604;28;20211;-70
2022/12/25 10:45:23;;;;;;;3.50;3.20;;;;;;;7.79;100.00;97158.56;5019821;28;20214;-69
2022/12/25 10:48:02;;;;;;;3.63;3.20;;;;;;;7.92;100.00;97142.19;5029825;28;20602;-71
2022/12/25 10:50:42;;;;;;;3.03;2.60;;;;;;;7.79;100.00;97150.66;5007197;28;20242;-71
2022/12/25 10:53:18;;;;;;;5.90;3.07;;;;;;;7.97;100.00;97120.59;5009439;28;20321;-71
2022/12/25 10:55:59;;;;;;;2.90;2.57;;;;;;;8.01;100.00;97108.69;5003823;28;20342;-69
2022/12/25 10:58:27;;;;;;;2.80;2.70;;;;;;;8.08;100.00;97108.84;5010125;28;20207;-68
2022/12/25 11:00:57;;;;;;;3.17;2.90;;;;;;;8.21;100.00;97095.13;5005217;28;20232;-70
2022/12/25 11:03:28;;;;;;;3.20;2.87;;;;;;;8.21;100.00;97088.00;5001603;28;20227;-71
2022/12/25 11:05:57;;;;;;;3.47;2.57;;;;;;;8.06;100.00;97090.53;5012229;28;20290;-70
2022/12/25 11:08:27;;;;;;;2.50;2.30;;;;;;;7.92;100.00;97101.81;5025194;28;20761;-70
2022/12/25 11:10:57;;;;;;;2.73;2.53;;;;;;;8.03;100.00;97090.88;5001312;28;20409;-70
2022/12/25 11:13:26;;;;;;;5.40;3.10;;;;;;;8.11;100.00;97085.56;4998193;28;20212;-69
2022/12/25 11:16:09;;;;;;;2.60;2.40;;;;;;;7.88;100.00;97087.31;5027377;28;20205;-69
2022/12/25 11:18:45;;;;;;;3.10;2.37;;;;;;;7.79;100.00;97086.50;4959182;28;20254;-69
2022/12/25 11:21:18;;;;;;;2.53;2.33;;;;;;;7.74;100.00;97076.44;5022160;28;20207;-69
2022/12/25 11:23:48;;;;;;;3.80;2.77;;;;;;;7.89;100.00;97081.03;5022198;28;20957;-71
2022/12/25 11:26:16;;;;;;;2.73;2.53;;;;;;;7.90;100.00;97090.59;5006932;28;20235;-68
2022/12/25 11:28:44;;;;;;;2.67;2.47;;;;;;;7.99;100.00;97092.22;5025500;28;20321;-70
2022/12/25 11:31:15;;;;;;;3.70;2.70;;;;;;;7.97;100.00;97102.97;5008101;28;20641;-70
2022/12/25 11:33:47;;;;;;;2.87;2.60;;;;;;;7.91;100.00;97093.06;4989124;28;20215;-70
2022/12/25 11:36:20;;;;;;;2.87;2.67;;;;;;;7.84;100.00;97096.56;5019678;28;20230;-70
2022/12/25 11:38:48;;;;;;;2.70;2.50;;;;;;;7.94;100.00;97110.38;5026265;28;20215;-70
2022/12/25 11:41:19;;;;;;;4.73;3.10;;;;;;;8.07;100.00;97112.50;5020716;28;20226;-69
2022/12/25 11:43:49;;;;;;;4.17;3.10;;;;;;;8.26;100.00;97111.25;5026399;28;20581;-68
2022/12/25 11:46:21;;;;;;;2.87;2.67;;;;;;;8.47;100.00;97102.75;5006777;28;20239;-69
2022/12/25 11:48:54;;;;;;;2.53;2.30;;;;;;;8.48;100.00;97101.75;4974691;28;20222;-70
2022/12/25 11:51:26;;;;;;;2.40;2.30;;;;;;;8.53;100.00;97090.72;5021920;28;20258;-71
2022/12/25 11:53:55;;;;;;;3.10;2.90;;;;;;;8.65;100.00;97089.31;5029490;28;20675;-71
2022/12/25 11:56:24;;;;;;;5.33;3.07;;;;;;;8.71;100.00;97084.34;5017976;28;20736;-70
2022/12/25 11:58:53;;;;;;;3.50;2.87;;;;;;;8.75;100.00;97083.81;5031643;28;20757;-71
2022/12/25 12:01:29;;;;;;;3.50;2.40;;;;;;;8.72;100.00;97072.78;5025708;28;20226;-70
2022/12/25 12:03:58;;;;;;;3.27;2.27;;;;;;;8.62;100.00;97078.28;4958964;28;20327;-70
2022/12/25 12:06:30;;;;;;;2.50;2.10;;;;;;;8.56;100.00;97089.53;5025540;28;20217;-69
2022/12/25 12:09:02;;;;;;;2.00;1.90;;;;;;;8.61;100.00;97084.56;5027239;28;20401;-70
2022/12/25 12:11:33;;;;;;;2.53;2.07;;;;;;;8.64;100.00;97073.63;5026649;28;20204;-68
2022/12/25 12:14:10;;;;;;;2.33;2.10;;;;;;;8.68;99.98;97070.47;5011705;28;20490;-69
2022/12/25 12:16:37;;;;;;;3.47;2.10;;;;;;;8.65;98.24;97062.91;5024348;28;20226;-68
2022/12/25 12:19:12;;;;;;;2.63;2.43;;;;;;;8.76;100.00;97060.84;4973310;28;20914;-71
2022/12/25 12:21:42;;;;;;;1.93;1.73;;;;;;;8.67;98.71;97060.09;5007612;28;20207;-71
2022/12/25 12:24:13;;;;;;;2.90;2.30;;;;;;;8.70;100.00;97057.09;5029627;28;20223;-70
2022/12/25 12:26:43;;;;;;;4.73;2.43;;;;;;;8.59;100.00;97046.94;4999791;28;20455;-68
2022/12/25 12:29:22;;;;;;;4.00;2.43;;;;;;;8.40;100.00;97049.00;5027848;28;20223;-72
2022/12/25 12:31:50;;;;;;;2.47;2.20;;;;;;;8.36;100.00;97051.16;5022899;28;20743;-70
2022/12/25 12:34:22;;;;;;;2.40;2.23;;;;;;;8.35;100.00;97054.78;4989304;28;20273;-70
2022/12/25 12:36:53;;;;;;;2.10;1.90;;;;;;;8.33;100.00;97053.31;5008920;28;20445;-72
2022/12/25 12:39:23;;;;;;;2.23;2.00;;;;;;;8.28;100.00;97048.56;5029465;28;20204;-71
2022/12/25 12:41:50;;;;;;;4.03;2.47;;;;;;;8.25;100.00;97041.00;5027327;28;20702;-70
2022/12/25 12:44:18;;;;;;;2.37;2.17;;;;;;;8.25;100.00;97033.06;5014220;28;20223;-70
2022/12/25 12:46:53;;;;;;;3.33;2.27;;;;;;;8.20;100.00;97035.41;5027248;28;20236;-69
2022/12/25 12:49:23;;;;;;;1.90;1.80;;;;;;;8.28;100.00;97034.53;4992004;28;20229;-71
2022/12/25 12:52:02;;;;;;;3.03;2.47;;;;;;;8.39;100.00;97028.88;5007952;28;20797;-72
2022/12/25 12:54:30;;;;;;;3.07;2.40;;;;;;;8.44;100.00;97029.19;5032210;28;20203;-68
2022/12/25 12:56:59;;;;;;;1.80;1.70;;;;;;;8.46;100.00;97021.91;5027801;28;20358;-71
2022/12/25 12:59:35;;;;;;;2.30;2.00;;;;;;;8.50;100.00;97022.38;5017809;28;20215;-70
2022/12/25 13:02:13;;;;;;;3.53;2.33;;;;;;;8.57;100.00;97012.78;5026401;28;20413;-67
2022/12/25 13:04:52;;;;;;;3.33;2.63;;;;;;;8.61;100.00;97011.44;5005446;28;20227;-67
2022/12/25 13:07:48;;;;;;;4.20;2.13;;;;;;;8.64;100.00;97000.53;5010760;28;20693;-70
2022/12/25 13:10:23;;;;;;;2.33;2.13;;;;;;;8.59;100.00;96997.59;4971626;28;20614;-68
2022/12/25 13:12:54;;;;;;;2.50;2.30;;;;;;;8.55;100.00;96993.66;5028860;28;20670;-71
2022/12/25 13:15:23;;;;;;;2.63;2.40;;;;;;;8.51;100.00;96993.19;5012787;28;20331;-69
2022/12/25 13:17:50;;;;;;;2.73;2.20;;;;;;;8.57;100.00;96989.03;5026989;28;20237;-72
2022/12/25 13:20:23;;;;;;;3.27;2.20;;;;;;;8.58;100.00;96995.94;5026397;28;20204;-68
2022/12/25 13:22:54;;;;;;;3.10;2.80;;;;;;;8.59;100.00;96999.41;5029969;28;20619;-70
2022/12/25 13:25:22;;;;;;;3.30;2.90;;;;;;;8.64;100.00;96992.59;4986320;28;20749;-68
2022/12/25 13:27:58;;;;;;;8.90;3.27;;;;;;;8.70;100.00;96985.78;5030995;28;20502;-71
2022/12/25 13:30:26;;;;;;;2.27;2.17;;;;;;;8.70;100.00;96988.41;5021361;28;20495;-68
2022/12/25 13:32:55;;;;;;;4.90;3.00;;;;;;;8.67;100.00;96980.84;5013594;28;20870;-69